createdAt,value
2018-04-01T00:00:19.715Z,4.89
2018-04-01T00:01:19.650Z,4.80
2018-04-01T00:03:13.279Z,4.90
2018-04-01T00:04:13.254Z,4.92
2018-04-01T00:06:07.050Z,4.86
2018-04-01T00:07:06.983Z,4.73
2018-04-01T00:09:02.428Z,4.66
2018-04-01T00:10:01.736Z,4.67
2018-04-01T00:11:55.256Z,4.66
2018-04-01T00:12:55.188Z,4.66
2018-04-01T00:14:48.850Z,4.77
2018-04-01T00:15:48.809Z,4.78
2018-04-01T00:17:42.426Z,4.78
2018-04-01T00:18:42.374Z,4.62
2018-04-01T00:20:35.902Z,4.56
2018-04-01T00:21:35.878Z,4.55
2018-04-01T00:23:29.517Z,4.45
2018-04-01T00:24:29.451Z,4.44
2018-04-01T00:26:23.873Z,4.53
2018-04-01T00:27:23.015Z,4.52
2018-04-01T00:29:17.443Z,4.53
2018-04-01T00:30:16.639Z,4.49
2018-04-01T00:32:11.069Z,4.45
2018-04-01T00:33:10.327Z,4.42
2018-04-01T00:35:04.270Z,4.55
2018-04-01T00:36:03.822Z,4.59
2018-04-01T00:37:58.247Z,4.50
2018-04-01T00:38:57.462Z,4.50
2018-04-01T00:40:51.214Z,4.44
2018-04-01T00:41:51.170Z,4.50
2018-04-01T00:43:44.678Z,4.56
2018-04-01T00:44:44.668Z,4.50
2018-04-01T00:46:39.092Z,4.53
2018-04-01T00:47:38.246Z,4.53
2018-04-01T00:49:32.002Z,4.49
2018-04-01T00:50:31.989Z,4.41
2018-04-01T00:52:26.423Z,4.38
2018-04-01T00:53:25.569Z,4.26
2018-04-01T00:55:20.004Z,4.41
2018-04-01T00:56:19.150Z,4.48
2018-04-01T00:58:13.573Z,4.42
2018-04-01T00:59:12.661Z,4.55
2018-04-01T01:01:06.346Z,4.53
2018-04-01T01:02:06.284Z,4.58
2018-04-01T01:03:59.784Z,4.48
2018-04-01T01:04:59.751Z,4.48
2018-04-01T01:06:53.338Z,4.19
2018-04-01T01:07:53.310Z,4.37
2018-04-01T01:09:47.732Z,4.40
2018-04-01T01:10:46.930Z,4.40
2018-04-01T01:12:40.425Z,4.31
2018-04-01T01:13:40.359Z,4.31
2018-04-01T01:15:34.010Z,4.42
2018-04-01T01:16:33.997Z,4.52
2018-04-01T01:18:27.588Z,4.44
2018-04-01T01:19:27.550Z,4.41
2018-04-01T01:21:21.971Z,4.42
2018-04-01T01:22:21.327Z,4.48
2018-04-01T01:24:15.776Z,4.20
2018-04-01T01:25:15.004Z,4.20
2018-04-01T01:27:08.984Z,4.19
2018-04-01T01:28:08.644Z,4.14
2018-04-01T01:30:03.065Z,4.17
2018-04-01T01:31:02.223Z,4.17
2018-04-01T01:32:55.897Z,4.23
2018-04-01T01:33:55.841Z,4.23
2018-04-01T01:35:50.277Z,4.24
2018-04-01T01:36:49.561Z,4.23
2018-04-01T01:38:43.125Z,4.17
2018-04-01T01:39:43.081Z,4.19
2018-04-01T01:41:36.781Z,4.22
2018-04-01T01:42:36.729Z,4.10
2018-04-01T01:43:36.721Z,4.12
2018-04-01T01:44:36.706Z,4.10
2018-04-01T01:45:36.697Z,4.14
2018-04-01T01:46:36.684Z,4.19
2018-04-01T01:47:36.677Z,4.16
2018-04-01T01:48:36.667Z,4.17
2018-04-01T01:49:36.652Z,4.14
2018-04-01T01:50:36.639Z,4.24
2018-04-01T01:51:36.631Z,4.23
2018-04-01T01:52:36.624Z,4.22
2018-04-01T01:53:36.619Z,4.22
2018-04-01T01:54:36.605Z,4.17
2018-04-01T01:55:36.600Z,4.23
2018-04-01T01:56:36.585Z,4.23
2018-04-01T01:57:36.568Z,4.20
2018-04-01T01:58:36.557Z,4.19
2018-04-01T01:59:36.550Z,4.19
2018-04-01T02:00:36.534Z,4.23
2018-04-01T02:01:36.528Z,4.22
2018-04-01T02:02:36.520Z,4.20
2018-04-01T02:03:36.504Z,4.17
2018-04-01T02:04:36.499Z,4.20
2018-04-01T02:05:36.494Z,4.20
2018-04-01T02:06:36.481Z,4.19
2018-04-01T02:07:36.464Z,4.20
2018-04-01T02:08:36.460Z,4.19
2018-04-01T02:09:36.439Z,4.24
2018-04-01T02:10:36.430Z,4.23
2018-04-01T02:11:36.425Z,4.22
2018-04-01T02:12:36.411Z,4.30
2018-04-01T02:13:36.408Z,4.23
2018-04-01T02:14:36.389Z,4.34
2018-04-01T02:15:36.374Z,4.26
2018-04-01T02:16:36.367Z,4.32
2018-04-01T02:17:36.362Z,4.32
2018-04-01T02:18:36.347Z,4.31
2018-04-01T02:19:36.337Z,4.28
2018-04-01T02:20:36.341Z,4.20
2018-04-01T02:21:36.309Z,4.20
2018-04-01T02:22:36.306Z,4.23
2018-04-01T02:23:36.294Z,4.20
2018-04-01T02:24:36.281Z,4.28
2018-04-01T02:25:36.274Z,4.30
2018-04-01T02:26:36.265Z,4.23
2018-04-01T02:27:36.254Z,4.32
2018-04-01T02:28:36.242Z,4.30
2018-04-01T02:29:36.231Z,4.26
2018-04-01T02:30:36.223Z,4.28
2018-04-01T02:31:36.289Z,4.31
2018-04-01T02:32:36.197Z,4.19
2018-04-01T02:33:36.184Z,4.20
2018-04-01T02:34:36.181Z,4.17
2018-04-01T02:35:36.168Z,4.23
2018-04-01T02:36:36.156Z,4.22
2018-04-01T02:37:36.148Z,4.20
2018-04-01T02:38:36.134Z,4.19
2018-04-01T02:39:36.127Z,4.23
2018-04-01T02:40:36.115Z,4.16
2018-04-01T02:41:36.105Z,4.17
2018-04-01T02:42:36.095Z,4.30
2018-04-01T02:43:36.084Z,4.30
2018-04-01T02:44:36.070Z,4.30
2018-04-01T02:45:36.061Z,4.17
2018-04-01T02:46:36.052Z,4.17
2018-04-01T02:47:36.066Z,4.10
2018-04-01T02:48:37.013Z,4.08
2018-04-01T02:49:36.021Z,4.17
2018-04-01T02:50:36.010Z,4.19
2018-04-01T02:51:36.002Z,4.12
2018-04-01T02:52:35.988Z,4.20
2018-04-01T02:53:35.978Z,4.23
2018-04-01T02:54:35.964Z,4.20
2018-04-01T02:55:35.960Z,4.14
2018-04-01T02:56:35.947Z,4.26
2018-04-01T02:57:35.937Z,4.19
2018-04-01T02:58:35.926Z,4.17
2018-04-01T02:59:35.916Z,4.23
2018-04-01T03:00:35.909Z,4.19
2018-04-01T03:01:35.891Z,4.22
2018-04-01T03:02:35.878Z,4.13
2018-04-01T03:03:35.881Z,4.22
2018-04-01T03:04:35.935Z,4.14
2018-04-01T03:05:35.861Z,4.13
2018-04-01T03:06:35.839Z,4.17
2018-04-01T03:07:35.829Z,4.16
2018-04-01T03:08:35.820Z,4.05
2018-04-01T03:09:35.809Z,4.14
2018-04-01T03:10:35.797Z,4.14
2018-04-01T03:11:35.786Z,4.12
2018-04-01T03:12:35.776Z,4.14
2018-04-01T03:13:35.770Z,4.13
2018-04-01T03:14:35.784Z,4.08
2018-04-01T03:15:35.769Z,4.17
2018-04-01T03:16:35.737Z,4.10
2018-04-01T03:17:35.727Z,4.14
2018-04-01T03:18:35.712Z,4.12
2018-04-01T03:19:35.707Z,4.16
2018-04-01T03:20:35.695Z,4.13
2018-04-01T03:21:35.682Z,4.17
2018-04-01T03:22:35.673Z,4.08
2018-04-01T03:23:35.663Z,4.12
2018-04-01T03:24:35.649Z,4.13
2018-04-01T03:25:35.644Z,4.14
2018-04-01T03:26:35.631Z,4.22
2018-04-01T03:27:35.618Z,4.13
2018-04-01T03:28:35.609Z,4.17
2018-04-01T03:29:35.597Z,4.12
2018-04-01T03:30:35.597Z,4.14
2018-04-01T03:31:35.590Z,4.16
2018-04-01T03:32:35.567Z,4.24
2018-04-01T03:33:35.557Z,4.23
2018-04-01T03:34:35.546Z,4.17
2018-04-01T03:35:35.535Z,4.20
2018-04-01T03:36:35.522Z,4.19
2018-04-01T03:37:35.512Z,4.23
2018-04-01T03:38:35.504Z,4.16
2018-04-01T03:39:35.494Z,4.16
2018-04-01T03:40:35.483Z,4.28
2018-04-01T03:41:35.473Z,4.24
2018-04-01T03:42:35.468Z,4.24
2018-04-01T03:43:35.453Z,4.19
2018-04-01T03:44:35.442Z,4.26
2018-04-01T03:45:35.432Z,4.28
2018-04-01T03:46:35.422Z,4.31
2018-04-01T03:47:35.410Z,4.19
2018-04-01T03:48:35.395Z,4.19
2018-04-01T03:49:35.394Z,4.24
2018-04-01T03:50:35.378Z,4.22
2018-04-01T03:51:35.372Z,4.19
2018-04-01T03:52:35.356Z,4.10
2018-04-01T03:53:35.356Z,4.14
2018-04-01T03:54:35.334Z,4.19
2018-04-01T03:55:35.321Z,4.17
2018-04-01T03:56:35.313Z,4.17
2018-04-01T03:57:35.304Z,4.20
2018-04-01T03:58:35.290Z,4.20
2018-04-01T03:59:35.284Z,4.28
2018-04-01T04:00:35.277Z,4.38
2018-04-01T04:01:35.259Z,4.40
2018-04-01T04:02:35.251Z,4.23
2018-04-01T04:03:35.242Z,4.28
2018-04-01T04:04:35.234Z,4.22
2018-04-01T04:05:35.216Z,4.20
2018-04-01T04:06:35.209Z,4.17
2018-04-01T04:07:35.198Z,4.17
2018-04-01T04:08:35.190Z,4.16
2018-04-01T04:09:35.174Z,4.06
2018-04-01T04:10:35.167Z,4.14
2018-04-01T04:11:35.158Z,4.23
2018-04-01T04:12:35.151Z,4.14
2018-04-01T04:13:35.133Z,4.12
2018-04-01T04:14:35.124Z,4.06
2018-04-01T04:15:35.114Z,4.08
2018-04-01T04:16:35.103Z,4.05
2018-04-01T04:17:35.101Z,4.12
2018-04-01T04:18:35.079Z,4.06
2018-04-01T04:19:35.070Z,4.17
2018-04-01T04:20:35.064Z,4.20
2018-04-01T04:21:35.047Z,4.17
2018-04-01T04:22:35.037Z,4.16
2018-04-01T04:23:35.034Z,4.12
2018-04-01T04:24:35.016Z,4.14
2018-04-01T04:25:35.001Z,4.12
2018-04-01T04:26:35.006Z,4.16
2018-04-01T04:27:34.984Z,4.16
2018-04-01T04:28:34.975Z,4.16
2018-04-01T04:29:34.965Z,4.19
2018-04-01T04:30:34.952Z,4.22
2018-04-01T04:31:34.940Z,4.16
2018-04-01T04:32:34.944Z,4.23
2018-04-01T04:33:34.923Z,4.19
2018-04-01T04:34:34.920Z,4.16
2018-04-01T04:35:34.895Z,4.13
2018-04-01T04:36:34.886Z,4.14
2018-04-01T04:37:34.878Z,4.16
2018-04-01T04:38:34.866Z,4.14
2018-04-01T04:39:34.858Z,4.17
2018-04-01T04:40:34.851Z,4.14
2018-04-01T04:41:34.836Z,4.19
2018-04-01T04:42:34.824Z,4.10
2018-04-01T04:43:34.821Z,4.08
2018-04-01T04:44:34.806Z,4.10
2018-04-01T04:45:35.528Z,4.16
2018-04-01T04:46:34.782Z,4.10
2018-04-01T04:47:34.774Z,4.12
2018-04-01T04:48:34.773Z,4.17
2018-04-01T04:49:34.748Z,4.14
2018-04-01T04:50:34.740Z,4.23
2018-04-01T04:51:34.729Z,4.16
2018-04-01T04:52:34.717Z,4.17
2018-04-01T04:53:34.711Z,4.12
2018-04-01T04:54:34.696Z,4.10
2018-04-01T04:55:34.682Z,4.17
2018-04-01T04:56:34.686Z,4.12
2018-04-01T04:57:34.671Z,4.01
2018-04-01T04:58:34.658Z,4.05
2018-04-01T04:59:34.644Z,4.04
2018-04-01T05:00:34.629Z,4.06
2018-04-01T05:01:34.620Z,4.06
2018-04-01T05:02:34.618Z,4.06
2018-04-01T05:03:34.601Z,4.06
2018-04-01T05:04:34.587Z,4.10
2018-04-01T05:05:34.578Z,4.05
2018-04-01T05:06:34.564Z,4.02
2018-04-01T05:07:34.556Z,4.06
2018-04-01T05:08:34.549Z,4.04
2018-04-01T05:09:34.534Z,4.06
2018-04-01T05:10:34.532Z,4.06
2018-04-01T05:11:34.516Z,4.05
2018-04-01T05:12:34.505Z,4.04
2018-04-01T05:13:34.489Z,4.02
2018-04-01T05:14:34.478Z,4.05
2018-04-01T05:15:34.468Z,3.99
2018-04-01T05:16:34.463Z,3.99
2018-04-01T05:17:34.450Z,4.08
2018-04-01T05:18:34.439Z,3.99
2018-04-01T05:19:34.432Z,4.05
2018-04-01T05:20:34.415Z,4.08
2018-04-01T05:21:34.408Z,4.01
2018-04-01T05:22:34.396Z,3.99
2018-04-01T05:23:34.386Z,3.99
2018-04-01T05:24:34.374Z,3.95
2018-04-01T05:25:34.362Z,3.98
2018-04-01T05:26:34.355Z,4.05
2018-04-01T05:27:34.343Z,4.04
2018-04-01T05:28:34.330Z,4.12
2018-04-01T05:29:34.320Z,4.08
2018-04-01T05:30:34.310Z,4.06
2018-04-01T05:31:34.315Z,4.12
2018-04-01T05:32:34.288Z,4.06
2018-04-01T05:33:34.279Z,4.08
2018-04-01T05:34:34.267Z,4.12
2018-04-01T05:35:34.256Z,4.12
2018-04-01T05:36:34.242Z,4.01
2018-04-01T05:37:34.231Z,4.14
2018-04-01T05:38:34.222Z,4.12
2018-04-01T05:39:34.213Z,4.08
2018-04-01T05:40:34.202Z,4.06
2018-04-01T05:41:34.196Z,4.01
2018-04-01T05:42:34.177Z,4.02
2018-04-01T05:43:34.174Z,4.02
2018-04-01T05:44:34.160Z,3.98
2018-04-01T05:45:34.150Z,4.05
2018-04-01T05:46:34.138Z,3.96
2018-04-01T05:47:34.122Z,4.05
2018-04-01T05:48:34.159Z,4.06
2018-04-01T05:49:34.104Z,4.12
2018-04-01T05:50:34.100Z,4.10
2018-04-01T05:51:34.113Z,4.05
2018-04-01T05:52:34.074Z,4.02
2018-04-01T05:53:34.065Z,4.10
2018-04-01T05:54:34.063Z,4.01
2018-04-01T05:55:34.046Z,4.04
2018-04-01T05:56:34.033Z,4.10
2018-04-01T05:57:34.020Z,4.01
2018-04-01T05:58:34.006Z,4.04
2018-04-01T05:59:34.015Z,4.08
2018-04-01T06:00:33.987Z,4.10
2018-04-01T06:01:33.980Z,4.06
2018-04-01T06:02:33.966Z,4.12
2018-04-01T06:03:33.978Z,4.12
2018-04-01T06:04:33.940Z,4.10
2018-04-01T06:05:33.940Z,4.17
2018-04-01T06:06:33.922Z,4.05
2018-04-01T06:07:33.912Z,4.10
2018-04-01T06:08:33.913Z,4.13
2018-04-01T06:09:33.890Z,4.06
2018-04-01T06:10:33.879Z,4.14
2018-04-01T06:11:33.877Z,4.06
2018-04-01T06:12:33.860Z,4.17
2018-04-01T06:13:33.850Z,4.16
2018-04-01T06:14:33.838Z,4.13
2018-04-01T06:15:33.827Z,4.14
2018-04-01T06:16:33.814Z,4.16
2018-04-01T06:17:33.810Z,4.05
2018-04-01T06:18:33.791Z,4.14
2018-04-01T06:19:33.807Z,4.02
2018-04-01T06:20:33.778Z,4.13
2018-04-01T06:21:33.763Z,4.05
2018-04-01T06:22:33.750Z,4.05
2018-04-01T06:23:33.741Z,4.06
2018-04-01T06:24:33.729Z,4.02
2018-04-01T06:25:33.725Z,4.19
2018-04-01T06:26:33.713Z,4.12
2018-04-01T06:27:33.700Z,4.12
2018-04-01T06:28:33.689Z,4.16
2018-04-01T06:29:33.677Z,4.10
2018-04-01T06:30:33.666Z,4.13
2018-04-01T06:31:33.659Z,4.10
2018-04-01T06:32:33.645Z,4.19
2018-04-01T06:33:33.634Z,4.17
2018-04-01T06:34:33.621Z,4.10
2018-04-01T06:35:33.616Z,4.13
2018-04-01T06:36:33.600Z,4.06
2018-04-01T06:37:33.591Z,4.17
2018-04-01T06:38:33.582Z,4.10
2018-04-01T06:39:33.572Z,4.05
2018-04-01T06:40:33.560Z,4.02
2018-04-01T06:41:33.548Z,4.12
2018-04-01T06:42:33.536Z,4.08
2018-04-01T06:43:33.524Z,4.13
2018-04-01T06:44:33.515Z,4.22
2018-04-01T06:45:33.505Z,4.20
2018-04-01T06:46:33.497Z,4.12
2018-04-01T06:47:33.482Z,4.14
2018-04-01T06:48:33.473Z,4.17
2018-04-01T06:49:33.461Z,4.12
2018-04-01T06:50:33.449Z,4.06
2018-04-01T06:51:33.442Z,4.08
2018-04-01T06:52:33.429Z,4.05
2018-04-01T06:53:33.414Z,4.02
2018-04-01T06:54:33.407Z,4.14
2018-04-01T06:55:33.397Z,4.14
2018-04-01T06:56:33.386Z,4.06
2018-04-01T06:57:33.376Z,4.12
2018-04-01T06:58:33.364Z,4.04
2018-04-01T06:59:33.351Z,4.05
2018-04-01T07:00:33.344Z,4.04
2018-04-01T07:01:33.329Z,4.06
2018-04-01T07:02:33.368Z,4.06
2018-04-01T07:03:33.313Z,3.99
2018-04-01T07:04:33.300Z,3.98
2018-04-01T07:05:33.292Z,4.02
2018-04-01T07:06:33.275Z,4.02
2018-04-01T07:07:33.273Z,3.91
2018-04-01T07:08:33.257Z,3.94
2018-04-01T07:09:33.247Z,3.98
2018-04-01T07:10:33.235Z,3.87
2018-04-01T07:11:33.225Z,3.95
2018-04-01T07:12:33.216Z,3.96
2018-04-01T07:13:33.200Z,4.01
2018-04-01T07:14:33.193Z,3.96
2018-04-01T07:15:33.179Z,3.91
2018-04-01T07:16:33.169Z,4.02
2018-04-01T07:17:33.212Z,4.01
2018-04-01T07:18:33.147Z,4.01
2018-04-01T07:19:33.134Z,3.98
2018-04-01T07:20:33.126Z,4.06
2018-04-01T07:21:33.119Z,3.95
2018-04-01T07:22:33.106Z,4.02
2018-04-01T07:23:33.096Z,3.99
2018-04-01T07:24:33.083Z,4.02
2018-04-01T07:25:33.074Z,3.91
2018-04-01T07:26:33.058Z,3.92
2018-04-01T07:27:34.030Z,3.95
2018-04-01T07:28:33.038Z,3.94
2018-04-01T07:29:33.026Z,3.87
2018-04-01T07:30:33.023Z,3.88
2018-04-01T07:31:33.016Z,3.98
2018-04-01T07:32:32.993Z,3.86
2018-04-01T07:33:32.985Z,3.91
2018-04-01T07:34:33.534Z,3.88
2018-04-01T07:35:32.960Z,3.88
2018-04-01T07:36:32.950Z,3.91
2018-04-01T07:37:32.944Z,3.91
2018-04-01T07:38:32.928Z,3.77
2018-04-01T07:39:32.916Z,3.83
2018-04-01T07:40:32.909Z,3.87
2018-04-01T07:41:32.896Z,3.77
2018-04-01T07:42:32.890Z,3.83
2018-04-01T07:43:32.877Z,3.88
2018-04-01T07:44:34.538Z,3.88
2018-04-01T07:45:32.858Z,3.88
2018-04-01T07:46:32.842Z,3.94
2018-04-01T07:47:33.541Z,3.87
2018-04-01T07:48:32.823Z,3.83
2018-04-01T07:49:32.813Z,3.88
2018-04-01T07:50:32.800Z,3.95
2018-04-01T07:51:32.792Z,3.91
2018-04-01T07:52:32.784Z,3.99
2018-04-01T07:53:32.773Z,3.92
2018-04-01T07:54:32.782Z,3.88
2018-04-01T07:55:32.747Z,3.96
2018-04-01T07:56:32.736Z,3.87
2018-04-01T07:57:32.726Z,3.86
2018-04-01T07:58:32.729Z,3.74
2018-04-01T07:59:32.707Z,3.86
2018-04-01T08:00:32.711Z,3.76
2018-04-01T08:01:32.684Z,3.78
2018-04-01T08:02:32.677Z,3.74
2018-04-01T08:03:32.664Z,3.80
2018-04-01T08:04:32.652Z,3.78
2018-04-01T08:05:32.648Z,3.81
2018-04-01T08:06:32.634Z,3.78
2018-04-01T08:07:32.621Z,3.77
2018-04-01T08:08:32.613Z,3.91
2018-04-01T08:09:32.607Z,3.94
2018-04-01T08:10:32.621Z,3.94
2018-04-01T08:11:32.593Z,3.95
2018-04-01T08:12:32.571Z,3.87
2018-04-01T08:13:32.559Z,3.91
2018-04-01T08:14:32.547Z,3.91
2018-04-01T08:15:32.540Z,3.83
2018-04-01T08:16:32.539Z,3.78
2018-04-01T08:17:32.533Z,3.84
2018-04-01T08:18:32.508Z,3.76
2018-04-01T08:19:32.504Z,3.78
2018-04-01T08:20:32.484Z,3.86
2018-04-01T08:21:32.476Z,3.86
2018-04-01T08:22:32.474Z,3.86
2018-04-01T08:23:32.453Z,3.91
2018-04-01T08:24:32.440Z,3.96
2018-04-01T08:25:32.438Z,3.91
2018-04-01T08:26:32.423Z,4.04
2018-04-01T08:27:32.417Z,4.01
2018-04-01T08:28:33.040Z,4.05
2018-04-01T08:29:32.404Z,4.10
2018-04-01T08:30:33.045Z,4.08
2018-04-01T08:31:32.369Z,4.10
2018-04-01T08:32:32.364Z,4.16
2018-04-01T08:33:32.352Z,4.14
2018-04-01T08:34:32.357Z,4.08
2018-04-01T08:35:32.353Z,4.13
2018-04-01T08:36:32.317Z,4.16
2018-04-01T08:37:32.308Z,4.13
2018-04-01T08:38:32.298Z,4.17
2018-04-01T08:39:32.297Z,4.13
2018-04-01T08:40:32.283Z,4.17
2018-04-01T08:41:32.279Z,4.17
2018-04-01T08:42:32.262Z,4.20
2018-04-01T08:43:32.248Z,4.17
2018-04-01T08:44:32.240Z,4.20
2018-04-01T08:45:32.231Z,4.19
2018-04-01T08:46:32.259Z,4.17
2018-04-01T08:47:32.205Z,4.22
2018-04-01T08:48:32.200Z,4.22
2018-04-01T08:49:33.239Z,4.20
2018-04-01T08:50:43.049Z,4.28
2018-04-01T08:51:32.189Z,4.30
2018-04-01T08:52:32.167Z,4.37
2018-04-01T08:53:32.151Z,4.45
2018-04-01T08:54:32.137Z,4.42
2018-04-01T08:55:32.129Z,4.41
2018-04-01T08:56:32.140Z,4.49
2018-04-01T08:57:32.114Z,4.56
2018-04-01T08:58:32.101Z,4.56
2018-04-01T08:59:32.138Z,4.63
2018-04-01T09:00:32.084Z,4.63
2018-04-01T09:01:32.068Z,4.62
2018-04-01T09:02:32.063Z,4.66
2018-04-01T09:03:32.052Z,4.62
2018-04-01T09:04:32.042Z,4.68
2018-04-01T09:05:32.034Z,4.73
2018-04-01T09:06:32.023Z,4.73
2018-04-01T09:07:32.008Z,4.74
2018-04-01T09:08:31.997Z,4.67
2018-04-01T09:09:31.993Z,4.62
2018-04-01T09:10:32.045Z,4.63
2018-04-01T09:11:31.972Z,4.80
2018-04-01T09:12:31.966Z,4.73
2018-04-01T09:13:31.961Z,4.77
2018-04-01T09:14:31.946Z,4.80
2018-04-01T09:15:31.938Z,4.84
2018-04-01T09:16:31.931Z,4.80
2018-04-01T09:17:31.917Z,4.84
2018-04-01T09:18:31.905Z,4.78
2018-04-01T09:19:31.902Z,4.78
2018-04-01T09:20:31.887Z,4.73
2018-04-01T09:21:31.878Z,4.77
2018-04-01T09:22:31.867Z,4.82
2018-04-01T09:23:31.861Z,4.74
2018-04-01T09:24:31.851Z,4.78
2018-04-01T09:25:31.837Z,4.77
2018-04-01T09:26:31.830Z,4.86
2018-04-01T09:27:31.823Z,4.84
2018-04-01T09:28:31.806Z,4.87
2018-04-01T09:29:31.804Z,4.87
2018-04-01T09:30:31.795Z,4.94
2018-04-01T09:31:31.782Z,4.96
2018-04-01T09:32:31.781Z,4.94
2018-04-01T09:33:31.763Z,4.96
2018-04-01T09:34:31.770Z,5.05
2018-04-01T09:35:31.745Z,5.10
2018-04-01T09:36:31.737Z,5.14
2018-04-01T09:37:31.727Z,5.07
2018-04-01T09:38:31.714Z,5.17
2018-04-01T09:39:31.705Z,5.20
2018-04-01T09:40:31.694Z,5.28
2018-04-01T09:41:31.687Z,5.23
2018-04-01T09:42:31.676Z,5.25
2018-04-01T09:43:31.669Z,5.29
2018-04-01T09:44:31.662Z,5.33
2018-04-01T09:45:31.651Z,5.29
2018-04-01T09:46:31.645Z,5.33
2018-04-01T09:47:31.656Z,5.32
2018-04-01T09:48:31.629Z,5.32
2018-04-01T09:49:31.620Z,5.25
2018-04-01T09:50:31.607Z,5.25
2018-04-01T09:51:31.595Z,5.29
2018-04-01T09:52:31.590Z,5.26
2018-04-01T09:53:31.572Z,5.26
2018-04-01T09:54:31.564Z,5.29
2018-04-01T09:55:31.563Z,5.23
2018-04-01T09:56:31.552Z,5.26
2018-04-01T09:57:31.542Z,5.23
2018-04-01T09:58:31.531Z,5.17
2018-04-01T09:59:31.517Z,5.08
2018-04-01T10:00:31.513Z,5.15
2018-04-01T10:01:31.504Z,5.21
2018-04-01T10:02:31.517Z,5.21
2018-04-01T10:03:31.491Z,5.20
2018-04-01T10:04:31.481Z,5.14
2018-04-01T10:05:31.467Z,5.18
2018-04-01T10:06:31.457Z,5.17
2018-04-01T10:07:31.450Z,5.15
2018-04-01T10:08:31.437Z,5.07
2018-04-01T10:09:31.428Z,5.07
2018-04-01T10:10:31.420Z,5.11
2018-04-01T10:11:31.411Z,5.21
2018-04-01T10:12:31.395Z,5.07
2018-04-01T10:13:31.390Z,5.08
2018-04-01T10:14:31.378Z,5.07
2018-04-01T10:15:33.060Z,5.05
2018-04-01T10:16:31.362Z,5.12
2018-04-01T10:17:31.351Z,5.15
2018-04-01T10:18:31.357Z,5.15
2018-04-01T10:19:31.333Z,5.08
2018-04-01T10:20:31.324Z,4.96
2018-04-01T10:21:31.315Z,5.04
2018-04-01T10:22:31.301Z,5.05
2018-04-01T10:23:31.296Z,5.04
2018-04-01T10:24:31.284Z,5.04
2018-04-01T10:25:31.276Z,5.07
2018-04-01T10:26:31.268Z,5.10
2018-04-01T10:27:31.259Z,5.10
2018-04-01T10:28:31.272Z,5.11
2018-04-01T10:29:31.235Z,5.21
2018-04-01T10:30:31.228Z,5.11
2018-04-01T10:31:31.217Z,5.15
2018-04-01T10:32:31.230Z,5.05
2018-04-01T10:33:31.211Z,5.15
2018-04-01T10:34:31.192Z,5.14
2018-04-01T10:35:31.179Z,5.11
2018-04-01T10:36:31.173Z,5.21
2018-04-01T10:37:31.157Z,5.15
2018-04-01T10:38:31.147Z,5.15
2018-04-01T10:39:31.141Z,5.14
2018-04-01T10:40:31.130Z,5.21
2018-04-01T10:41:31.120Z,5.15
2018-04-01T10:42:31.110Z,5.17
2018-04-01T10:43:31.101Z,5.12
2018-04-01T10:44:31.092Z,5.05
2018-04-01T10:45:31.085Z,5.08
2018-04-01T10:46:31.071Z,5.20
2018-04-01T10:47:31.063Z,5.07
2018-04-01T10:48:31.051Z,5.11
2018-04-01T10:49:31.079Z,5.15
2018-04-01T10:50:31.032Z,5.08
2018-04-01T10:51:31.023Z,5.18
2018-04-01T10:52:31.012Z,5.21
2018-04-01T10:53:31.005Z,5.07
2018-04-01T10:54:30.995Z,5.15
2018-04-01T10:55:30.986Z,5.18
2018-04-01T10:56:30.981Z,5.20
2018-04-01T10:57:30.976Z,5.15
2018-04-01T10:58:30.957Z,5.17
2018-04-01T10:59:30.950Z,5.21
2018-04-01T11:00:30.950Z,5.25
2018-04-01T11:01:30.928Z,5.26
2018-04-01T11:02:30.919Z,5.26
2018-04-01T11:03:30.909Z,5.26
2018-04-01T11:04:30.899Z,5.33
2018-04-01T11:05:30.888Z,5.28
2018-04-01T11:06:30.881Z,5.30
2018-04-01T11:07:30.869Z,5.35
2018-04-01T11:08:30.861Z,5.32
2018-04-01T11:09:30.855Z,5.36
2018-04-01T11:10:30.843Z,5.30
2018-04-01T11:11:30.832Z,5.26
2018-04-01T11:12:30.823Z,5.21
2018-04-01T11:13:30.813Z,5.23
2018-04-01T11:14:30.808Z,5.18
2018-04-01T11:15:30.797Z,5.15
2018-04-01T11:16:30.784Z,5.17
2018-04-01T11:17:30.776Z,5.23
2018-04-01T11:18:30.764Z,5.25
2018-04-01T11:19:30.757Z,5.26
2018-04-01T11:20:30.746Z,5.30
2018-04-01T11:21:30.740Z,5.33
2018-04-01T11:22:30.731Z,5.35
2018-04-01T11:23:30.721Z,5.33
2018-04-01T11:24:30.711Z,5.41
2018-04-01T11:25:30.707Z,5.44
2018-04-01T11:26:30.694Z,5.53
2018-04-01T11:27:30.682Z,5.54
2018-04-01T11:28:30.672Z,5.57
2018-04-01T11:29:30.663Z,5.57
2018-04-01T11:30:30.655Z,5.62
2018-04-01T11:31:30.701Z,5.69
2018-04-01T11:32:30.635Z,5.65
2018-04-01T11:33:30.624Z,5.71
2018-04-01T11:34:30.615Z,5.76
2018-04-01T11:35:30.609Z,5.80
2018-04-01T11:36:30.602Z,5.80
2018-04-01T11:37:30.590Z,5.83
2018-04-01T11:38:30.580Z,5.90
2018-04-01T11:39:30.572Z,5.91
2018-04-01T11:40:30.561Z,5.94
2018-04-01T11:41:30.553Z,6.02
2018-04-01T11:42:30.559Z,5.97
2018-04-01T11:43:30.537Z,6.02
2018-04-01T11:44:30.527Z,6.07
2018-04-01T11:45:30.520Z,6.08
2018-04-01T11:46:30.514Z,6.14
2018-04-01T11:47:30.495Z,6.12
2018-04-01T11:48:30.494Z,6.16
2018-04-01T11:49:30.482Z,6.11
2018-04-01T11:50:30.470Z,6.14
2018-04-01T11:51:30.464Z,6.26
2018-04-01T11:52:30.454Z,6.26
2018-04-01T11:53:30.464Z,6.24
2018-04-01T11:54:30.436Z,6.33
2018-04-01T11:55:30.428Z,6.39
2018-04-01T11:56:30.419Z,6.42
2018-04-01T11:57:30.412Z,6.39
2018-04-01T11:58:30.403Z,6.44
2018-04-01T11:59:30.396Z,6.44
2018-04-01T12:00:30.386Z,6.46
2018-04-01T12:01:30.382Z,6.54
2018-04-01T12:02:30.372Z,6.52
2018-04-01T12:03:30.363Z,6.60
2018-04-01T12:04:30.356Z,6.66
2018-04-01T12:05:30.343Z,6.74
2018-04-01T12:06:30.378Z,6.72
2018-04-01T12:07:30.330Z,6.77
2018-04-01T12:08:30.322Z,6.78
2018-04-01T12:09:30.314Z,6.72
2018-04-01T12:10:30.307Z,6.67
2018-04-01T12:11:30.304Z,6.52
2018-04-01T12:12:30.288Z,6.60
2018-04-01T12:13:30.282Z,6.56
2018-04-01T12:14:30.273Z,6.70
2018-04-01T12:15:30.268Z,6.69
2018-04-01T12:16:30.341Z,6.67
2018-04-01T12:17:30.248Z,6.72
2018-04-01T12:18:30.243Z,6.62
2018-04-01T12:19:30.233Z,6.75
2018-04-01T12:20:30.223Z,6.67
2018-04-01T12:21:30.218Z,6.72
2018-04-01T12:22:30.208Z,6.84
2018-04-01T12:23:30.202Z,6.85
2018-04-01T12:24:30.196Z,6.95
2018-04-01T12:25:30.186Z,7.02
2018-04-01T12:26:30.178Z,7.02
2018-04-01T12:27:30.187Z,7.05
2018-04-01T12:28:30.162Z,7.13
2018-04-01T12:29:30.157Z,7.17
2018-04-01T12:30:30.148Z,7.17
2018-04-01T12:31:30.139Z,7.33
2018-04-01T12:32:30.132Z,7.36
2018-04-01T12:33:30.126Z,7.42
2018-04-01T12:34:30.118Z,7.45
2018-04-01T12:35:30.104Z,7.56
2018-04-01T12:36:30.101Z,7.54
2018-04-01T12:37:30.094Z,7.57
2018-04-01T12:38:30.087Z,7.70
2018-04-01T12:39:30.076Z,7.69
2018-04-01T12:40:30.066Z,7.60
2018-04-01T12:41:30.060Z,7.72
2018-04-01T12:42:30.058Z,7.75
2018-04-01T12:43:30.047Z,7.77
2018-04-01T12:44:30.041Z,7.90
2018-04-01T12:45:30.036Z,7.76
2018-04-01T12:46:30.026Z,7.77
2018-04-01T12:47:30.023Z,7.79
2018-04-01T12:48:30.060Z,7.79
2018-04-01T12:49:30.006Z,7.88
2018-04-01T12:50:29.995Z,7.90
2018-04-01T12:51:29.990Z,7.75
2018-04-01T12:52:29.983Z,7.79
2018-04-01T12:53:30.000Z,7.79
2018-04-01T12:54:29.965Z,7.82
2018-04-01T12:55:29.965Z,7.85
2018-04-01T12:56:29.950Z,7.87
2018-04-01T12:57:29.946Z,7.77
2018-04-01T12:58:29.944Z,7.77
2018-04-01T12:59:29.936Z,7.88
2018-04-01T13:00:29.946Z,7.77
2018-04-01T13:01:29.916Z,7.88
2018-04-01T13:02:29.906Z,7.87
2018-04-01T13:03:29.905Z,7.77
2018-04-01T13:04:29.896Z,7.83
2018-04-01T13:05:29.891Z,8.05
2018-04-01T13:06:29.883Z,8.03
2018-04-01T13:07:29.880Z,8.09
2018-04-01T13:08:29.889Z,8.01
2018-04-01T13:09:29.869Z,8.10
2018-04-01T13:10:29.915Z,8.10
2018-04-01T13:11:29.851Z,8.09
2018-04-01T13:12:29.845Z,8.16
2018-04-01T13:13:29.835Z,8.12
2018-04-01T13:14:29.825Z,8.13
2018-04-01T13:15:29.816Z,8.27
2018-04-01T13:16:29.810Z,8.20
2018-04-01T13:17:29.809Z,8.23
2018-04-01T13:18:29.801Z,8.23
2018-04-01T13:19:29.804Z,8.28
2018-04-01T13:20:29.785Z,8.20
2018-04-01T13:21:29.779Z,8.24
2018-04-01T13:22:29.768Z,8.28
2018-04-01T13:23:29.761Z,8.27
2018-04-01T13:24:29.755Z,8.38
2018-04-01T13:25:29.750Z,8.36
2018-04-01T13:26:29.746Z,8.30
2018-04-01T13:27:30.610Z,8.28
2018-04-01T13:28:29.733Z,8.33
2018-04-01T13:29:29.721Z,8.28
2018-04-01T13:30:29.715Z,8.30
2018-04-01T13:31:29.709Z,8.23
2018-04-01T13:32:29.706Z,8.15
2018-04-01T13:33:29.695Z,8.13
2018-04-01T13:34:29.689Z,8.18
2018-04-01T13:35:29.684Z,8.10
2018-04-01T13:36:29.677Z,8.12
2018-04-01T13:37:29.668Z,8.12
2018-04-01T13:38:29.659Z,8.19
2018-04-01T13:39:29.680Z,8.12
2018-04-01T13:40:29.647Z,8.23
2018-04-01T13:41:29.640Z,8.23
2018-04-01T13:42:29.627Z,8.30
2018-04-01T13:43:29.624Z,8.27
2018-04-01T13:44:29.613Z,8.26
2018-04-01T13:45:29.613Z,8.08
2018-04-01T13:46:29.603Z,8.16
2018-04-01T13:47:29.597Z,8.13
2018-04-01T13:48:29.595Z,8.28
2018-04-01T13:49:29.580Z,8.18